Kentucky Observed Data For Previous 48 Hours

Caption
Day and Hour Reservoir Elevation (behind dam)* Tailwater Elevation (below dam)* Average Hourly Discharge*
9/14/2019 1 AM CDT 355.43 301.81 21,271
9/14/2019 2 AM CDT 355.45 301.78 21,171
9/14/2019 3 AM CDT 355.51 301.71 21,124
9/14/2019 4 AM CDT 355.50 301.66 21,136
9/14/2019 5 AM CDT 355.48 301.72 21,057
9/14/2019 6 AM CDT 355.47 301.73 21,016
9/14/2019 7 AM CDT 355.47 301.74 20,998
9/14/2019 8 AM CDT 355.46 301.82 21,016
9/14/2019 9 AM CDT 355.50 301.82 21,111
9/14/2019 10 AM CDT 355.51 301.88 21,137
9/14/2019 11 AM CDT 355.51 301.95 21,162
9/14/2019 12 PM CDT 355.50 302.05 21,242
9/14/2019 1 PM CDT 355.49 302.01 21,274
9/14/2019 2 PM CDT 355.48 302.01 21,290
9/14/2019 3 PM CDT 355.48 301.97 21,197
9/14/2019 4 PM CDT 355.48 302.00 21,213
9/14/2019 5 PM CDT 355.47 302.02 21,222
9/14/2019 6 PM CDT 355.46 301.97 21,226
9/14/2019 7 PM CDT 355.48 301.96 21,258
9/14/2019 8 PM CDT 355.49 301.97 21,278
9/14/2019 9 PM CDT 355.53 301.95 21,279
9/14/2019 10 PM CDT 355.56 301.94 21,227
9/14/2019 11 PM CDT 355.58 301.93 21,159
9/15/2019 12 AM CDT 355.58 301.90 21,080
9/15/2019 1 AM CDT 355.62 301.59 14,617
9/15/2019 2 AM CDT 355.62 301.49 14,338
9/15/2019 3 AM CDT 355.62 301.54 14,329
9/15/2019 4 AM CDT 355.62 301.60 14,302
9/15/2019 5 AM CDT 355.62 301.54 14,305
9/15/2019 6 AM CDT 355.63 301.53 14,258
9/15/2019 7 AM CDT 355.63 301.50 14,197
9/15/2019 8 AM CDT 355.63 301.52 14,382
9/15/2019 9 AM CDT 355.62 301.73 21,075
9/15/2019 10 AM CDT 355.63 301.81 21,136
9/15/2019 11 AM CDT 355.63 301.70 21,160
9/15/2019 12 PM CDT 355.63 301.70 21,160
9/15/2019 1 PM CDT 355.61 301.85 21,298
9/15/2019 2 PM CDT 355.58 302.26 30,443
9/15/2019 3 PM CDT 355.56 302.22 28,250
9/15/2019 4 PM CDT 355.55 302.14 28,295
9/15/2019 5 PM CDT 355.55 302.17 28,248
9/15/2019 6 PM CDT 355.54 302.20 28,248
9/15/2019 7 PM CDT 355.55 302.26 28,280
9/15/2019 8 PM CDT 355.57 302.30 28,240
9/15/2019 9 PM CDT 355.58 302.28 28,301
9/15/2019 10 PM CDT 355.60 302.30 28,267
9/15/2019 11 PM CDT 355.62 301.84 21,425
9/16/2019 12 AM CDT 355.63 301.75 21,196
9/16/2019 1 AM CDT 355.63 301.79 21,198
9/16/2019 2 AM CDT 355.63 301.76 21,147
9/16/2019 3 AM CDT 355.62 301.73 21,222
9/16/2019 4 AM CDT 355.61 301.69 21,154
9/16/2019 5 AM CDT 355.60 301.69 21,107
9/16/2019 6 AM CDT 355.60 301.69 21,135
9/16/2019 7 AM CDT 355.60 301.76 21,112
9/16/2019 8 AM CDT 355.60 301.84 21,168
9/16/2019 9 AM CDT 355.60 301.94 21,228
9/16/2019 10 AM CDT 355.60 302.12 21,428
9/16/2019 11 AM CDT 355.58 302.47 28,223
9/16/2019 12 PM CDT 355.57 302.68 28,337
9/16/2019 1 PM CDT 355.53 302.62 28,287
9/16/2019 2 PM CDT 355.53 302.59 28,209
9/16/2019 3 PM CDT 355.53 302.63 28,267
9/16/2019 4 PM CDT 355.53 302.69 28,316
9/16/2019 5 PM CDT 355.53 302.68 28,290

Elevations are in feet above sea level. Discharges are in cubic feet per second and are reported at the end of the hour.